createdAt,value
2017-10-09T00:03:19.260Z,-67
2017-10-09T00:13:19.196Z,-66
2017-10-09T00:23:19.219Z,-68
2017-10-09T00:33:19.955Z,-68
2017-10-09T00:43:20.917Z,-66
2017-10-09T00:53:19.300Z,-68
2017-10-09T01:03:19.260Z,-69
2017-10-09T01:13:19.256Z,-67
2017-10-09T01:23:19.301Z,-66
2017-10-09T01:33:19.263Z,-65
2017-10-09T01:43:19.277Z,-67
2017-10-09T01:53:19.293Z,-65
2017-10-09T02:03:19.404Z,-69
2017-10-09T02:13:19.356Z,-68
2017-10-09T02:23:19.360Z,-66
2017-10-09T02:33:19.350Z,-65
2017-10-09T02:43:19.328Z,-65
2017-10-09T02:53:19.452Z,-65
2017-10-09T03:03:19.480Z,-64
2017-10-09T03:13:19.375Z,-66
2017-10-09T03:23:19.514Z,-67
2017-10-09T03:33:19.423Z,-67
2017-10-09T03:43:19.397Z,-67
2017-10-09T03:53:19.455Z,-64
2017-10-09T04:03:19.426Z,-66
2017-10-09T04:13:20.025Z,-68
2017-10-09T04:23:19.498Z,-68
2017-10-09T04:33:19.433Z,-68
2017-10-09T04:43:19.455Z,-68
2017-10-09T04:53:19.540Z,-67
2017-10-09T05:03:19.427Z,-66
2017-10-09T05:13:19.575Z,-67
2017-10-09T05:23:19.487Z,-65
2017-10-09T05:33:19.498Z,-67
2017-10-09T05:43:20.394Z,-67
2017-10-09T05:53:19.606Z,-68
2017-10-09T06:03:19.635Z,-67
2017-10-09T06:13:19.763Z,-69
2017-10-09T06:23:19.600Z,-68
2017-10-09T06:33:19.643Z,-65
2017-10-09T06:43:19.846Z,-66
2017-10-09T06:53:20.440Z,-64
2017-10-09T07:03:19.735Z,-66
2017-10-09T07:13:19.642Z,-66
2017-10-09T07:23:19.701Z,-64
2017-10-09T07:33:19.678Z,-64
2017-10-09T07:43:19.605Z,-65
2017-10-09T07:53:19.589Z,-65
2017-10-09T08:03:19.659Z,-66
2017-10-09T08:13:19.625Z,-66
2017-10-09T08:23:19.650Z,-64
2017-10-09T08:33:19.631Z,-66
2017-10-09T08:43:20.657Z,-66
2017-10-09T08:53:19.694Z,-65
2017-10-09T09:03:19.718Z,-66
2017-10-09T09:13:19.740Z,-66
2017-10-09T09:23:19.660Z,-62
2017-10-09T09:33:19.707Z,-65
2017-10-09T09:43:19.765Z,-65
2017-10-09T09:53:19.762Z,-63
2017-10-09T10:03:20.271Z,-66
2017-10-09T10:13:19.807Z,-64
2017-10-09T10:23:19.791Z,-64
2017-10-09T10:33:19.775Z,-63
2017-10-09T10:43:19.794Z,-65
2017-10-09T10:53:19.748Z,-67
2017-10-09T11:03:19.784Z,-64
2017-10-09T11:13:19.823Z,-67
2017-10-09T11:23:19.869Z,-67
2017-10-09T11:33:19.873Z,-67
2017-10-09T11:43:19.824Z,-60
2017-10-09T11:53:19.849Z,-61
2017-10-09T12:03:20.608Z,-65
2017-10-09T12:13:19.904Z,-65
2017-10-09T12:23:20.071Z,-66
2017-10-09T12:33:20.018Z,-68
2017-10-09T12:43:19.989Z,-66
2017-10-09T12:53:20.066Z,-66
2017-10-09T13:03:19.973Z,-62
2017-10-09T13:13:20.034Z,-65
2017-10-09T13:23:19.914Z,-63
2017-10-09T13:33:20.859Z,-62
2017-10-09T13:43:20.046Z,-62
2017-10-09T13:53:20.015Z,-65
2017-10-09T14:03:20.018Z,-65
2017-10-09T14:13:20.007Z,-64
2017-10-09T14:23:20.089Z,-62
2017-10-09T14:43:20.042Z,-62
2017-10-09T14:53:20.138Z,-61
2017-10-09T15:03:20.147Z,-60
2017-10-09T15:13:20.032Z,-60
2017-10-09T15:23:20.086Z,-61
2017-10-09T15:33:21.762Z,-63
2017-10-09T15:43:20.148Z,-62
2017-10-09T15:53:20.145Z,-63
2017-10-09T16:03:20.154Z,-60
2017-10-09T16:13:20.089Z,-61
2017-10-09T16:23:20.134Z,-62
2017-10-09T16:33:20.697Z,-58
2017-10-09T16:43:20.182Z,-59
2017-10-09T16:53:20.171Z,-60
2017-10-09T17:03:20.242Z,-63
2017-10-09T17:13:20.157Z,-63
2017-10-09T17:23:20.201Z,-62
2017-10-09T17:33:20.304Z,-61
2017-10-09T17:43:20.820Z,-63
2017-10-09T17:53:20.171Z,-61
2017-10-09T18:03:20.227Z,-62
2017-10-09T18:13:21.251Z,-59
2017-10-09T18:23:20.234Z,-62
2017-10-09T18:33:20.264Z,-61
2017-10-09T18:43:21.039Z,-61
2017-10-09T18:53:20.252Z,-61
2017-10-09T19:03:20.396Z,-61
2017-10-09T19:13:20.454Z,-63
2017-10-09T19:23:20.859Z,-61
2017-10-09T19:33:22.532Z,-61
2017-10-09T19:43:22.697Z,-63
2017-10-09T19:53:21.178Z,-63
2017-10-09T20:03:21.220Z,-61
2017-10-09T20:13:21.807Z,-62
2017-10-09T20:23:21.238Z,-61
2017-10-09T20:33:21.241Z,-60
2017-10-09T20:43:21.520Z,-63
2017-10-09T20:53:21.251Z,-59
2017-10-09T21:03:21.325Z,-63
2017-10-09T21:13:21.317Z,-64
2017-10-09T21:23:27.795Z,-62
2017-10-09T21:33:21.318Z,-62
2017-10-09T21:43:23.316Z,-61
2017-10-09T21:53:23.374Z,-60
2017-10-09T22:03:25.828Z,-58
2017-10-09T22:13:21.270Z,-60
2017-10-09T22:23:30.803Z,-60
2017-10-09T22:33:21.283Z,-60
2017-10-09T22:43:27.855Z,-61
2017-10-09T22:53:22.465Z,-59
2017-10-09T23:03:21.441Z,-60
2017-10-09T23:13:23.109Z,-61
2017-10-09T23:23:22.446Z,-61
2017-10-09T23:33:21.444Z,-61
2017-10-09T23:43:22.434Z,-59
2017-10-09T23:53:23.448Z,-60
